Time;durP1;ratioP1;P1;durP2;ratioP2;P2;SDS_P1;SDS_P2;PMS_P1;PMS_P2;Temp;Humidity;BMP_temperature;BMP_pressure;BME280_temperature;BME280_humidity;BME280_pressure;Samples;Min_cycle;Max_cycle;Signal;HPM_P1;HPM_P2
2023/03/16 06:00:38;;;;;;;12.07;10.97;;;2.60;97.20;;;;;;1707214;28;20695;-67
2023/03/16 06:01:29;;;;;;;10.63;9.73;;;2.60;97.20;;;;;;1710156;28;20290;-66
2023/03/16 06:02:20;;;;;;;11.03;9.73;;;2.60;97.20;;;;;;1713762;28;20241;-66
2023/03/16 06:03:11;;;;;;;12.25;10.95;;;2.60;97.20;;;;;;1713547;28;20247;-66
2023/03/16 06:04:04;;;;;;;11.35;10.35;;;2.60;97.20;;;;;;1713739;28;20651;-66
2023/03/16 06:04:55;;;;;;;10.35;9.45;;;2.70;97.20;;;;;;1713547;28;20659;-66
2023/03/16 06:05:47;;;;;;;11.13;10.10;;;2.70;97.20;;;;;;1713747;28;20556;-66
2023/03/16 06:06:38;;;;;;;11.45;10.35;;;2.70;97.20;;;;;;1713764;28;20449;-68
2023/03/16 06:07:30;;;;;;;10.43;9.53;;;2.70;97.20;;;;;;1713853;28;20656;-66
2023/03/16 06:08:20;;;;;;;10.40;9.50;;;2.70;97.20;;;;;;1713782;28;20208;-65
2023/03/16 06:09:12;;;;;;;11.97;10.87;;;2.70;97.20;;;;;;1713859;28;20216;-66
2023/03/16 06:10:04;;;;;;;11.70;10.60;;;2.70;97.20;;;;;;1707922;28;20257;-66
2023/03/16 06:10:55;;;;;;;11.82;10.68;;;2.70;97.20;;;;;;1707035;28;20230;-66
2023/03/16 06:11:46;;;;;;;11.35;10.25;;;2.70;97.20;;;;;;1707140;28;20269;-67
2023/03/16 06:12:38;;;;;;;11.20;10.20;;;2.70;97.20;;;;;;1706757;28;20225;-66
2023/03/16 06:13:29;;;;;;;12.00;10.82;;;2.70;97.20;;;;;;1707064;28;20218;-66
2023/03/16 06:14:22;;;;;;;10.55;9.70;;;2.70;97.20;;;;;;1706913;28;20629;-65
2023/03/16 06:15:12;;;;;;;12.35;11.02;;;2.70;97.20;;;;;;1707093;28;20242;-66
2023/03/16 06:16:06;;;;;;;12.00;10.87;;;2.80;97.20;;;;;;1706977;28;20203;-65
2023/03/16 06:16:57;;;;;;;11.10;10.10;;;2.80;97.20;;;;;;1707144;28;20213;-65
2023/03/16 06:17:48;;;;;;;11.17;10.17;;;2.80;97.20;;;;;;1707083;28;20209;-65
2023/03/16 06:18:40;;;;;;;11.70;10.70;;;2.80;97.20;;;;;;1707084;28;20206;-65
2023/03/16 06:19:31;;;;;;;11.45;10.45;;;2.90;97.20;;;;;;1707908;28;20688;-69
2023/03/16 06:20:22;;;;;;;12.55;11.38;;;2.90;97.20;;;;;;1713583;28;20241;-66
2023/03/16 06:21:14;;;;;;;11.70;10.60;;;2.90;97.20;;;;;;1713723;28;20206;-66
2023/03/16 06:22:04;;;;;;;11.80;10.73;;;2.90;97.20;;;;;;1713668;28;20209;-68
2023/03/16 06:22:57;;;;;;;11.53;10.50;;;3.00;97.20;;;;;;1713669;28;20202;-66
2023/03/16 06:23:47;;;;;;;11.40;10.40;;;3.00;97.20;;;;;;1713728;28;20453;-66
2023/03/16 06:24:40;;;;;;;11.50;10.40;;;3.00;97.20;;;;;;1713441;28;20206;-66
2023/03/16 06:25:30;;;;;;;12.82;11.60;;;3.00;97.20;;;;;;1713465;28;20456;-68
2023/03/16 06:26:22;;;;;;;11.50;10.40;;;3.10;97.20;;;;;;1713772;28;20205;-67
2023/03/16 06:27:13;;;;;;;11.55;10.43;;;3.10;97.20;;;;;;1713663;28;20289;-66
2023/03/16 06:28:05;;;;;;;13.10;10.60;;;3.10;97.20;;;;;;1713696;28;20292;-65
2023/03/16 06:28:56;;;;;;;11.30;10.20;;;3.10;97.20;;;;;;1713644;28;20592;-66
2023/03/16 06:29:48;;;;;;;11.73;10.63;;;3.10;97.20;;;;;;1710396;28;20586;-65
2023/03/16 06:30:38;;;;;;;12.02;10.77;;;3.20;97.20;;;;;;1706736;28;20229;-66
2023/03/16 06:31:32;;;;;;;13.50;11.50;;;3.20;97.20;;;;;;1707125;28;20204;-66
2023/03/16 06:32:23;;;;;;;11.82;10.73;;;3.20;97.20;;;;;;1707040;28;20234;-66
2023/03/16 06:33:15;;;;;;;11.20;10.20;;;3.30;97.20;;;;;;1707046;28;20210;-66
2023/03/16 06:34:06;;;;;;;11.40;10.40;;;3.30;97.20;;;;;;1706994;29;20206;-66
2023/03/16 06:35:01;;;;;;;11.38;10.35;;;3.30;97.20;;;;;;1706769;28;20202;-67
2023/03/16 06:35:51;;;;;;;12.10;10.90;;;3.30;97.20;;;;;;1706983;28;20218;-65
2023/03/16 06:36:43;;;;;;;11.93;10.87;;;3.30;97.20;;;;;;1707054;28;20249;-66
2023/03/16 06:37:34;;;;;;;12.20;11.10;;;3.30;97.20;;;;;;1707028;28;20453;-65
2023/03/16 06:38:26;;;;;;;12.05;10.90;;;3.40;97.20;;;;;;1707038;28;20213;-65
2023/03/16 06:39:16;;;;;;;11.82;10.60;;;3.40;97.20;;;;;;1706970;28;20210;-65
2023/03/16 06:40:09;;;;;;;12.03;10.83;;;3.40;97.20;;;;;;1712309;28;20205;-66
2023/03/16 06:41:00;;;;;;;12.20;11.00;;;3.40;97.20;;;;;;1713742;28;20683;-65
2023/03/16 06:41:52;;;;;;;11.63;10.43;;;3.50;97.20;;;;;;1714257;28;20626;-65
2023/03/16 06:42:43;;;;;;;13.15;11.95;;;3.50;97.20;;;;;;1714874;28;20537;-66
2023/03/16 06:43:34;;;;;;;12.73;11.47;;;3.50;97.20;;;;;;1714895;28;20297;-66
2023/03/16 06:44:25;;;;;;;13.15;12.02;;;3.60;97.20;;;;;;1714648;28;20216;-65
2023/03/16 06:45:20;;;;;;;12.80;11.60;;;3.60;97.20;;;;;;1715661;28;20216;-66
2023/03/16 06:46:10;;;;;;;12.00;10.90;;;3.60;97.20;;;;;;1721498;28;20920;-65
2023/03/16 06:47:04;;;;;;;12.67;11.57;;;3.70;97.20;;;;;;1721451;28;20201;-68
2023/03/16 06:47:55;;;;;;;13.30;11.77;;;3.70;97.20;;;;;;1721171;28;20209;-67
2023/03/16 06:48:47;;;;;;;13.20;12.00;;;3.70;97.20;;;;;;1718685;28;20201;-68
2023/03/16 06:49:37;;;;;;;12.30;11.10;;;3.70;97.20;;;;;;1714440;28;20198;-68
2023/03/16 06:50:30;;;;;;;14.47;13.17;;;3.80;97.20;;;;;;1714453;28;20194;-65
2023/03/16 06:51:20;;;;;;;12.98;11.77;;;3.80;97.20;;;;;;1719074;28;20205;-65
2023/03/16 06:52:13;;;;;;;14.13;12.83;;;3.90;97.20;;;;;;1714880;28;20225;-65
2023/03/16 06:53:04;;;;;;;13.35;12.15;;;3.90;97.20;;;;;;1714809;28;20244;-66
2023/03/16 06:53:55;;;;;;;15.30;13.87;;;4.00;97.20;;;;;;1714578;28;20225;-70
2023/03/16 06:54:46;;;;;;;16.33;14.73;;;4.10;97.20;;;;;;1708306;28;20240;-68
2023/03/16 06:55:38;;;;;;;15.33;13.97;;;4.10;97.20;;;;;;1713106;28;20690;-64
2023/03/16 06:56:30;;;;;;;14.52;13.10;;;4.10;97.20;;;;;;1710783;28;20194;-65
2023/03/16 06:57:22;;;;;;;15.88;14.48;;;4.20;97.20;;;;;;1710080;28;20195;-66
2023/03/16 06:58:13;;;;;;;14.90;13.52;;;4.30;97.20;;;;;;1715507;28;20295;-66
2023/03/16 06:59:05;;;;;;;15.37;13.90;;;4.30;97.20;;;;;;1718289;28;20197;-67
2023/03/16 06:59:55;;;;;;;15.18;13.77;;;4.30;97.20;;;;;;1714668;28;20206;-66
2023/03/16 07:00:47;;;;;;;14.40;13.20;;;4.40;97.20;;;;;;1714405;28;20324;-65
2023/03/16 07:01:38;;;;;;;14.63;13.27;;;4.40;97.20;;;;;;1714727;28;20589;-66
2023/03/16 07:02:34;;;;;;;14.80;13.40;;;4.50;97.20;;;;;;1714616;28;20220;-65
2023/03/16 07:03:25;;;;;;;15.60;14.20;;;4.50;97.20;;;;;;1713992;28;20544;-66
2023/03/16 07:04:17;;;;;;;15.60;14.20;;;4.60;97.20;;;;;;1707441;28;20198;-66
2023/03/16 07:05:11;;;;;;;23.83;15.02;;;4.60;97.20;;;;;;1713993;28;20210;-65
2023/03/16 07:06:04;;;;;;;15.15;13.75;;;4.70;97.20;;;;;;1714370;28;20194;-65
2023/03/16 07:06:55;;;;;;;16.77;15.18;;;4.70;97.20;;;;;;1714611;28;20660;-65
2023/03/16 07:07:47;;;;;;;17.03;15.43;;;4.70;97.20;;;;;;1714608;28;20656;-68
2023/03/16 07:08:38;;;;;;;16.52;15.02;;;4.80;97.20;;;;;;1714469;28;20208;-65
2023/03/16 07:09:30;;;;;;;16.63;14.97;;;4.80;97.20;;;;;;1714557;28;20229;-66
2023/03/16 07:10:21;;;;;;;17.35;15.75;;;4.80;97.20;;;;;;1714368;28;20563;-66
2023/03/16 07:11:13;;;;;;;17.37;15.80;;;4.90;97.20;;;;;;1714620;28;20635;-66
2023/03/16 07:12:04;;;;;;;17.40;15.65;;;4.90;97.20;;;;;;1714557;28;20479;-66
2023/03/16 07:12:56;;;;;;;17.98;16.08;;;5.00;97.20;;;;;;1714537;28;20202;-66
2023/03/16 07:13:47;;;;;;;17.48;15.90;;;5.00;97.20;;;;;;1714631;28;20576;-65
2023/03/16 07:14:39;;;;;;;16.77;15.17;;;5.00;97.20;;;;;;1714030;28;20205;-65
2023/03/16 07:15:30;;;;;;;17.40;15.55;;;5.10;97.20;;;;;;1717233;28;20210;-66
2023/03/16 07:16:21;;;;;;;17.08;15.40;;;5.10;97.20;;;;;;1717151;28;20240;-66
2023/03/16 07:17:12;;;;;;;17.13;15.48;;;5.20;97.20;;;;;;1718174;28;20584;-67
2023/03/16 07:18:06;;;;;;;16.70;15.07;;;5.20;97.20;;;;;;1720777;28;20646;-66
2023/03/16 07:18:57;;;;;;;17.15;15.55;;;5.20;97.20;;;;;;1720984;28;20206;-65
2023/03/16 07:19:49;;;;;;;18.55;16.85;;;5.30;97.20;;;;;;1721253;28;20228;-66
2023/03/16 07:20:40;;;;;;;16.52;14.93;;;5.30;97.20;;;;;;1721035;28;20264;-66
2023/03/16 07:21:38;;;;;;;16.00;14.52;;;5.40;97.20;;;;;;1721115;28;20201;-66
2023/03/16 07:22:28;;;;;;;17.13;15.50;;;5.40;97.20;;;;;;1720916;28;20671;-68
2023/03/16 07:23:20;;;;;;;17.27;15.53;;;5.40;97.20;;;;;;1721169;28;20263;-66
2023/03/16 07:24:11;;;;;;;17.48;15.82;;;5.40;97.20;;;;;;1721118;28;20201;-66
2023/03/16 07:25:04;;;;;;;17.00;15.45;;;5.40;97.20;;;;;;1720379;28;20232;-66
2023/03/16 07:25:54;;;;;;;18.23;16.33;;;5.40;97.20;;;;;;1713468;28;20205;-69
2023/03/16 07:26:46;;;;;;;17.10;15.50;;;5.50;97.20;;;;;;1714383;28;20212;-65
2023/03/16 07:27:37;;;;;;;17.15;15.48;;;5.50;97.20;;;;;;1714586;28;20663;-65
2023/03/16 07:28:31;;;;;;;17.67;16.08;;;5.50;97.20;;;;;;1714223;28;20229;-66
2023/03/16 07:29:21;;;;;;;16.63;14.95;;;5.60;97.20;;;;;;1714533;28;20683;-67
2023/03/16 07:30:14;;;;;;;17.30;15.73;;;5.60;97.20;;;;;;1714419;28;20289;-65
2023/03/16 07:31:05;;;;;;;18.10;16.20;;;5.60;97.20;;;;;;1714565;28;20442;-69
2023/03/16 07:31:57;;;;;;;17.20;15.50;;;5.60;97.20;;;;;;1714429;28;20198;-65
2023/03/16 07:32:47;;;;;;;17.95;16.23;;;5.60;97.20;;;;;;1714450;28;20237;-66
2023/03/16 07:33:40;;;;;;;19.67;17.03;;;5.70;97.20;;;;;;1714515;28;20197;-66
2023/03/16 07:34:31;;;;;;;17.98;16.15;;;5.70;97.20;;;;;;1713883;28;20212;-66
2023/03/16 07:35:23;;;;;;;17.20;15.47;;;5.80;97.20;;;;;;1711498;28;20689;-65
2023/03/16 07:36:14;;;;;;;18.00;16.25;;;5.80;97.20;;;;;;1707466;28;20206;-64
2023/03/16 07:37:07;;;;;;;16.20;14.53;;;5.80;97.20;;;;;;1707449;28;20203;-67
2023/03/16 07:37:58;;;;;;;17.45;15.73;;;5.90;97.20;;;;;;1707656;28;20257;-64
2023/03/16 07:38:50;;;;;;;16.37;14.77;;;5.90;97.20;;;;;;1713188;28;20851;-66
2023/03/16 07:39:41;;;;;;;17.85;16.05;;;6.00;97.20;;;;;;1713921;28;20353;-66
2023/03/16 07:40:33;;;;;;;17.92;16.23;;;6.10;97.20;;;;;;1714231;28;20228;-64
2023/03/16 07:41:24;;;;;;;17.45;15.85;;;6.10;97.20;;;;;;1714342;28;20213;-68
2023/03/16 07:42:16;;;;;;;17.90;16.00;;;6.10;97.20;;;;;;1714435;28;20289;-67
2023/03/16 07:43:07;;;;;;;17.80;16.20;;;6.20;97.20;;;;;;1714405;28;20449;-65
2023/03/16 07:43:58;;;;;;;17.87;16.10;;;6.20;97.20;;;;;;1714280;28;20723;-66
2023/03/16 07:44:50;;;;;;;18.00;16.15;;;6.20;97.20;;;;;;1713689;28;20206;-66
2023/03/16 07:45:42;;;;;;;16.73;15.02;;;6.20;97.20;;;;;;1713418;28;20205;-67
2023/03/16 07:46:33;;;;;;;17.70;15.88;;;6.20;97.20;;;;;;1714264;28;20227;-65
2023/03/16 07:47:25;;;;;;;17.47;15.60;;;6.30;97.20;;;;;;1714314;28;20309;-64
2023/03/16 07:48:16;;;;;;;19.10;17.40;;;6.40;97.20;;;;;;1714295;28;20449;-64
2023/03/16 07:49:11;;;;;;;18.75;17.05;;;6.40;97.20;;;;;;1715603;28;20751;-67
2023/03/16 07:50:01;;;;;;;17.85;16.02;;;6.50;97.20;;;;;;1720885;28;20271;-68
2023/03/16 07:50:54;;;;;;;17.60;15.90;;;6.60;97.20;;;;;;1708477;28;20211;-64
2023/03/16 07:51:45;;;;;;;17.02;15.48;;;6.60;97.20;;;;;;1707591;28;20941;-64
2023/03/16 07:52:36;;;;;;;16.90;15.20;;;6.70;97.20;;;;;;1707582;28;20611;-67
2023/03/16 07:53:27;;;;;;;17.15;15.48;;;6.80;97.20;;;;;;1707434;28;20442;-67
2023/03/16 07:54:19;;;;;;;14.60;13.13;;;6.80;97.20;;;;;;1709166;28;20202;-64
2023/03/16 07:55:10;;;;;;;15.60;14.02;;;6.80;97.20;;;;;;1707494;28;20234;-65
2023/03/16 07:56:02;;;;;;;15.93;14.43;;;6.80;97.20;;;;;;1707486;28;20660;-65
2023/03/16 07:56:53;;;;;;;15.57;13.98;;;6.80;97.20;;;;;;1707546;28;20210;-66
2023/03/16 07:57:46;;;;;;;14.90;13.50;;;6.80;97.20;;;;;;1711560;28;20202;-66
2023/03/16 07:58:37;;;;;;;14.68;13.38;;;6.80;97.20;;;;;;1713968;28;20210;-65
2023/03/16 07:59:30;;;;;;;14.03;12.67;;;6.80;97.20;;;;;;1714203;28;20283;-65
2023/03/16 08:00:22;;;;;;;14.68;13.35;;;6.90;97.20;;;;;;1713461;28;20508;-66
2023/03/16 08:01:14;;;;;;;16.30;14.77;;;6.90;97.20;;;;;;1713436;28;20237;-66
2023/03/16 08:02:06;;;;;;;16.35;14.85;;;6.90;97.20;;;;;;1713831;28;20576;-65
2023/03/16 08:02:57;;;;;;;16.20;14.65;;;7.00;97.20;;;;;;1714275;28;20256;-66
2023/03/16 08:03:48;;;;;;;15.98;14.48;;;7.10;97.20;;;;;;1714105;28;20205;-65
2023/03/16 08:04:42;;;;;;;15.27;13.77;;;7.20;97.20;;;;;;1709167;28;20195;-65
2023/03/16 08:05:34;;;;;;;15.55;13.98;;;7.30;97.20;;;;;;1708358;28;20243;-66
2023/03/16 08:06:25;;;;;;;18.65;13.95;;;7.40;97.20;;;;;;1707477;29;20277;-65
2023/03/16 08:07:17;;;;;;;15.60;14.17;;;7.50;97.20;;;;;;1707528;28;20293;-65
2023/03/16 08:08:08;;;;;;;14.23;12.85;;;7.60;97.20;;;;;;1707444;28;20458;-66
2023/03/16 08:09:01;;;;;;;15.13;13.70;;;7.70;97.20;;;;;;1707318;28;20265;-66
2023/03/16 08:09:52;;;;;;;15.05;13.48;;;7.80;97.20;;;;;;1707449;28;20298;-65
2023/03/16 08:10:46;;;;;;;13.95;12.55;;;7.90;97.20;;;;;;1707381;28;20230;-66
2023/03/16 08:11:38;;;;;;;14.20;12.90;;;7.90;97.20;;;;;;1707285;28;20209;-65
2023/03/16 08:12:29;;;;;;;13.50;12.10;;;8.00;97.20;;;;;;1707493;28;20244;-68
2023/03/16 08:13:22;;;;;;;13.00;11.70;;;8.10;97.20;;;;;;1707427;29;20199;-67
2023/03/16 08:14:12;;;;;;;12.32;11.23;;;8.20;97.20;;;;;;1712126;28;20485;-66
2023/03/16 08:15:05;;;;;;;11.37;10.20;;;8.20;97.20;;;;;;1713651;28;20210;-66
2023/03/16 08:15:57;;;;;;;12.98;11.65;;;8.20;97.20;;;;;;1714003;28;20213;-67
2023/03/16 08:16:49;;;;;;;13.88;12.48;;;8.30;97.20;;;;;;1712399;28;20210;-65
2023/03/16 08:17:40;;;;;;;13.27;11.75;;;8.30;97.20;;;;;;1714114;28;20210;-65
2023/03/16 08:18:32;;;;;;;13.50;12.25;;;8.40;97.20;;;;;;1712618;28;20281;-65
2023/03/16 08:19:23;;;;;;;12.82;11.60;;;8.40;97.20;;;;;;1707434;28;20637;-66
2023/03/16 08:20:18;;;;;;;12.75;11.65;;;8.50;97.20;;;;;;1707269;28;20240;-67
2023/03/16 08:21:09;;;;;;;12.50;11.40;;;8.50;97.20;;;;;;1707218;29;20226;-67
2023/03/16 08:22:01;;;;;;;12.25;11.15;;;8.60;97.20;;;;;;1707503;28;20274;-66
2023/03/16 08:22:51;;;;;;;11.30;10.30;;;8.60;97.20;;;;;;1707260;28;20207;-66
2023/03/16 08:23:48;;;;;;;12.93;11.73;;;8.60;97.20;;;;;;1707377;28;20297;-69
2023/03/16 08:24:38;;;;;;;12.73;11.43;;;8.60;97.20;;;;;;1706915;29;20209;-67
2023/03/16 08:25:30;;;;;;;11.60;10.53;;;8.70;97.20;;;;;;1707288;28;20293;-66
2023/03/16 08:26:22;;;;;;;11.82;10.80;;;8.70;97.20;;;;;;1707439;28;20210;-66
2023/03/16 08:27:14;;;;;;;12.55;11.32;;;8.70;97.20;;;;;;1707304;29;20233;-66
2023/03/16 08:28:07;;;;;;;11.93;10.90;;;8.80;97.20;;;;;;1707372;28;20206;-66
2023/03/16 08:29:02;;;;;;;12.15;10.93;;;8.80;97.20;;;;;;1707562;28;20212;-66
2023/03/16 08:29:52;;;;;;;13.43;11.15;;;8.90;97.20;;;;;;1713866;28;20222;-68
2023/03/16 08:30:46;;;;;;;11.00;10.10;;;8.90;97.20;;;;;;1713870;28;20328;-66
2023/03/16 08:31:37;;;;;;;10.90;9.90;;;9.00;97.20;;;;;;1713929;28;20456;-65
2023/03/16 08:32:29;;;;;;;10.97;9.97;;;9.00;97.20;;;;;;1713970;28;20296;-64
2023/03/16 08:33:21;;;;;;;11.00;10.00;;;9.00;97.20;;;;;;1713990;28;20237;-66
2023/03/16 08:34:12;;;;;;;11.15;10.10;;;9.00;97.20;;;;;;1713972;28;20739;-65
2023/03/16 08:35:04;;;;;;;11.37;10.37;;;9.10;97.20;;;;;;1713581;28;20672;-66
2023/03/16 08:35:57;;;;;;;12.63;11.63;;;9.10;97.20;;;;;;1713257;28;20348;-68
2023/03/16 08:36:48;;;;;;;11.80;10.70;;;9.20;97.20;;;;;;1713427;28;20213;-65
2023/03/16 08:37:40;;;;;;;11.00;9.90;;;9.20;97.20;;;;;;1713817;28;20284;-68
2023/03/16 08:38:31;;;;;;;11.50;10.43;;;9.30;97.20;;;;;;1713609;28;20602;-68
2023/03/16 08:39:22;;;;;;;10.97;9.97;;;9.40;97.20;;;;;;1714002;28;20799;-66
2023/03/16 08:40:15;;;;;;;11.18;10.18;;;9.50;97.20;;;;;;1713759;28;20445;-66
2023/03/16 08:41:07;;;;;;;11.32;10.32;;;9.60;97.20;;;;;;1713754;28;20289;-68
2023/03/16 08:41:58;;;;;;;10.43;9.48;;;9.70;97.20;;;;;;1713935;28;20214;-65
2023/03/16 08:42:49;;;;;;;10.73;9.67;;;9.70;97.20;;;;;;1713976;28;20385;-66
2023/03/16 08:43:41;;;;;;;10.80;9.80;;;9.80;97.20;;;;;;1712327;28;20232;-66
2023/03/16 08:44:33;;;;;;;11.52;10.40;;;9.80;97.20;;;;;;1706601;28;20221;-66
2023/03/16 08:45:24;;;;;;;11.18;10.13;;;9.90;97.20;;;;;;1707241;28;20217;-66
2023/03/16 08:46:16;;;;;;;10.38;9.30;;;9.90;97.20;;;;;;1707016;28;20233;-66
2023/03/16 08:47:07;;;;;;;10.55;9.48;;;10.00;97.20;;;;;;1707182;28;20209;-65
2023/03/16 08:47:59;;;;;;;13.30;10.50;;;10.00;97.20;;;;;;1707191;28;20199;-66
2023/03/16 08:48:51;;;;;;;11.50;10.32;;;10.10;97.20;;;;;;1706931;28;20202;-66
2023/03/16 08:49:43;;;;;;;10.93;9.25;;;10.10;97.20;;;;;;1719449;28;20216;-66
2023/03/16 08:50:34;;;;;;;10.57;9.68;;;10.20;97.20;;;;;;1720379;28;20229;-66
2023/03/16 08:51:28;;;;;;;13.93;11.17;;;10.20;97.20;;;;;;1720425;28;20197;-66
2023/03/16 08:52:19;;;;;;;10.48;9.48;;;10.30;97.20;;;;;;1720588;28;20249;-66
2023/03/16 08:53:13;;;;;;;10.17;9.13;;;10.40;97.20;;;;;;1720426;28;20205;-66
2023/03/16 08:54:04;;;;;;;11.20;10.10;;;10.40;97.20;;;;;;1720556;28;20213;-67
2023/03/16 08:54:55;;;;;;;9.77;8.80;;;10.50;97.20;;;;;;1719921;28;20209;-66
2023/03/16 08:55:46;;;;;;;10.57;9.52;;;10.60;97.20;;;;;;1720488;28;20973;-66
2023/03/16 08:56:38;;;;;;;10.83;9.83;;;10.70;97.20;;;;;;1720464;28;20794;-65
2023/03/16 08:57:28;;;;;;;9.80;8.75;;;10.70;97.20;;;;;;1720510;28;20217;-66
2023/03/16 08:58:20;;;;;;;10.50;9.60;;;10.90;97.20;;;;;;1720558;28;20198;-68
2023/03/16 08:59:11;;;;;;;10.27;9.10;;;11.00;97.20;;;;;;1720336;28;20216;-66
2023/03/16 09:00:11;;;;;;;9.00;8.00;;;11.00;97.20;;;;;;1720551;28;20207;-67
2023/03/16 09:01:04;;;;;;;11.45;9.40;;;11.10;97.20;;;;;;1715242;28;20515;-66
2023/03/16 09:01:56;;;;;;;9.20;7.97;;;11.20;97.20;;;;;;1713790;28;20882;-65
2023/03/16 09:02:47;;;;;;;9.30;8.30;;;11.20;97.20;;;;;;1713798;28;20574;-65
2023/03/16 09:03:39;;;;;;;9.27;8.43;;;11.20;97.20;;;;;;1713848;28;20570;-66
2023/03/16 09:04:31;;;;;;;9.02;8.13;;;11.20;97.20;;;;;;1712752;28;20224;-66
2023/03/16 09:05:24;;;;;;;9.88;8.80;;;11.20;97.20;;;;;;1713869;28;20607;-67
2023/03/16 09:06:15;;;;;;;8.38;7.57;;;11.20;97.20;;;;;;1713690;28;20268;-66
2023/03/16 09:07:10;;;;;;;8.75;7.95;;;11.20;97.20;;;;;;1713753;28;20264;-66
2023/03/16 09:08:02;;;;;;;10.27;8.63;;;11.30;97.20;;;;;;1713800;28;20681;-65
2023/03/16 09:08:55;;;;;;;8.82;7.88;;;11.30;97.20;;;;;;1713534;28;20202;-65
2023/03/16 09:09:45;;;;;;;9.30;8.40;;;11.30;97.20;;;;;;1713765;28;20206;-65
2023/03/16 09:10:37;;;;;;;8.17;7.47;;;11.40;97.20;;;;;;1713659;28;20248;-66
2023/03/16 09:11:29;;;;;;;8.25;7.30;;;11.40;97.20;;;;;;1713729;28;20202;-68
2023/03/16 09:12:22;;;;;;;8.60;7.57;;;11.40;97.20;;;;;;1713755;28;20285;-68
2023/03/16 09:13:13;;;;;;;9.80;7.80;;;11.50;97.20;;;;;;1713673;28;20206;-66
2023/03/16 09:14:05;;;;;;;7.73;6.90;;;11.60;97.20;;;;;;1713821;28;20205;-65
2023/03/16 09:14:56;;;;;;;8.05;7.22;;;11.60;97.20;;;;;;1713233;28;20454;-66
2023/03/16 09:15:48;;;;;;;6.90;6.30;;;11.60;97.20;;;;;;1713691;28;20202;-66
2023/03/16 09:16:39;;;;;;;8.00;6.78;;;11.70;97.20;;;;;;1713728;28;20293;-65
2023/03/16 09:17:31;;;;;;;7.13;6.50;;;11.70;97.20;;;;;;1713716;28;20201;-65
2023/03/16 09:18:23;;;;;;;7.68;7.03;;;11.70;97.20;;;;;;1712184;28;20453;-65
2023/03/16 09:19:14;;;;;;;7.18;6.47;;;11.80;97.20;;;;;;1713496;28;20198;-65
2023/03/16 09:20:08;;;;;;;6.90;6.30;;;11.90;97.20;;;;;;1713397;28;20647;-65
2023/03/16 09:21:01;;;;;;;9.60;6.10;;;12.00;97.20;;;;;;1713695;28;20707;-68
2023/03/16 09:21:52;;;;;;;6.55;5.95;;;12.10;97.20;;;;;;1713639;28;20306;-65
2023/03/16 09:22:45;;;;;;;6.68;6.07;;;12.20;97.20;;;;;;1713772;28;20201;-65
2023/03/16 09:23:36;;;;;;;6.10;5.50;;;12.30;97.20;;;;;;1713670;28;20212;-68
2023/03/16 09:24:28;;;;;;;7.00;5.80;;;12.30;97.20;;;;;;1713196;28;20288;-66
2023/03/16 09:25:19;;;;;;;8.18;5.97;;;12.30;97.20;;;;;;1713806;28;20452;-66
2023/03/16 09:26:12;;;;;;;6.50;5.87;;;12.40;97.20;;;;;;1713690;28;20202;-66
2023/03/16 09:27:04;;;;;;;6.70;6.10;;;12.40;97.20;;;;;;1713791;28;20540;-67
2023/03/16 09:27:55;;;;;;;7.53;5.90;;;12.50;97.20;;;;;;1713718;28;20280;-68
2023/03/16 09:28:48;;;;;;;6.40;5.80;;;12.60;97.20;;;;;;1713505;28;20218;-65
2023/03/16 09:29:39;;;;;;;6.13;5.60;;;12.70;97.20;;;;;;1713665;28;20267;-67
2023/03/16 09:30:31;;;;;;;6.55;5.80;;;12.80;97.20;;;;;;1713528;28;20214;-68
2023/03/16 09:31:23;;;;;;;5.82;5.28;;;12.90;97.20;;;;;;1713744;28;20201;-66
2023/03/16 09:32:14;;;;;;;8.40;5.95;;;13.00;97.20;;;;;;1713503;28;20202;-66
2023/03/16 09:33:06;;;;;;;6.20;5.22;;;13.10;97.20;;;;;;1713636;28;20244;-67
2023/03/16 09:33:57;;;;;;;6.93;6.03;;;13.30;97.20;;;;;;1713749;28;20260;-66
2023/03/16 09:34:49;;;;;;;5.80;5.23;;;13.40;97.20;;;;;;1712177;28;20252;-66
2023/03/16 09:35:40;;;;;;;7.47;6.78;;;13.50;97.20;;;;;;1713049;28;20197;-66
2023/03/16 09:36:32;;;;;;;5.80;5.30;;;13.60;97.20;;;;;;1713717;28;20205;-69
2023/03/16 09:37:23;;;;;;;8.05;6.75;;;13.70;97.20;;;;;;1713279;28;20209;-66
2023/03/16 09:38:17;;;;;;;7.10;6.33;;;13.80;97.20;;;;;;1713427;28;20318;-66
2023/03/16 09:39:10;;;;;;;8.85;6.30;;;14.10;97.20;;;;;;1713445;28;20358;-66
2023/03/16 09:40:01;;;;;;;7.00;6.38;;;14.30;97.20;;;;;;1713764;28;20216;-66
2023/03/16 09:40:59;;;;;;;7.10;6.33;;;14.70;97.20;;;;;;1713520;28;20313;-66
2023/03/16 09:41:58;;;;;;;8.95;6.20;;;15.40;97.20;;;;;;1713605;28;20226;-66
2023/03/16 09:43:06;;;;;;;7.72;6.90;;;16.50;97.20;;;;;;1713673;28;20554;-66
2023/03/16 09:44:10;;;;;;;7.43;6.32;;;18.00;97.20;;;;;;1713665;28;20210;-66
2023/03/16 09:45:12;;;;;;;6.47;5.70;;;19.70;97.20;;;;;;1713267;28;20265;-66
2023/03/16 09:46:09;;;;;;;5.78;5.18;;;21.20;97.20;;;;;;1713632;28;20217;-67
2023/03/16 09:47:03;;;;;;;7.45;6.50;;;22.70;97.20;;;;;;1713675;28;20206;-65
2023/03/16 09:48:00;;;;;;;6.30;5.70;;;24.00;97.20;;;;;;1713640;28;20205;-66
2023/03/16 09:48:53;;;;;;;7.15;6.45;;;25.00;97.20;;;;;;1713402;28;20210;-66
2023/03/16 09:49:47;;;;;;;6.22;5.63;;;25.80;96.40;;;;;;1720037;28;20231;-66
2023/03/16 09:50:40;;;;;;;7.03;6.43;;;26.40;94.00;;;;;;1720324;28;20703;-66
2023/03/16 09:51:42;;;;;;;8.02;6.53;;;26.90;92.70;;;;;;1720297;28;20201;-68
2023/03/16 09:52:40;;;;;;;6.50;5.90;;;27.40;91.30;;;;;;1715919;28;20194;-67
2023/03/16 09:53:37;;;;;;;5.85;5.32;;;27.70;89.70;;;;;;1713652;28;20202;-68
2023/03/16 09:54:54;;;;;;;5.30;4.80;;;27.80;88.30;;;;;;1712787;28;20290;-66
2023/03/16 10:00:01;;;;;;;5.90;5.30;;;26.00;86.90;;;;;;1699630;29;20286;-67
2023/03/16 10:04:18;;;;;;;5.57;5.05;;;24.30;88.90;;;;;;1699594;29;20203;-67
2023/03/16 10:05:11;;;;;;;5.53;5.03;;;24.20;89.70;;;;;;1699216;29;20598;-66
2023/03/16 10:06:05;;;;;;;6.85;5.60;;;24.60;89.90;;;;;;1699319;29;20215;-67
2023/03/16 10:07:03;;;;;;;5.68;5.18;;;24.90;89.30;;;;;;1699307;29;20219;-66
2023/03/16 10:08:07;;;;;;;5.60;5.10;;;25.20;89.00;;;;;;1700158;28;20239;-67
2023/03/16 10:09:11;;;;;;;6.00;5.50;;;25.50;88.00;;;;;;1713437;28;20213;-67
2023/03/16 10:10:18;;;;;;;5.88;5.38;;;25.80;87.40;;;;;;1711641;28;20549;-69
2023/03/16 10:11:24;;;;;;;5.90;5.40;;;26.20;87.50;;;;;;1713608;28;20248;-66
2023/03/16 10:12:16;;;;;;;6.28;5.72;;;26.70;86.30;;;;;;1713602;28;20202;-66
2023/03/16 10:13:18;;;;;;;7.60;5.30;;;27.10;85.80;;;;;;1713559;28;20260;-66
2023/03/16 10:14:17;;;;;;;5.55;5.15;;;27.20;84.50;;;;;;1713610;28;20577;-66
2023/03/16 10:15:14;;;;;;;5.60;5.10;;;27.50;84.30;;;;;;1713544;28;20214;-67
2023/03/16 10:16:09;;;;;;;5.50;4.82;;;27.90;84.10;;;;;;1713403;28;20210;-66
2023/03/16 10:17:09;;;;;;;5.00;4.60;;;28.30;83.70;;;;;;1714504;28;20232;-67
2023/03/16 10:18:05;;;;;;;5.88;4.75;;;28.70;82.80;;;;;;1714989;28;20581;-69
2023/03/16 10:19:00;;;;;;;5.72;5.15;;;29.00;82.40;;;;;;1714627;28;20206;-67
2023/03/16 10:19:56;;;;;;;5.45;5.03;;;29.30;81.70;;;;;;1714610;28;20206;-67
2023/03/16 10:20:49;;;;;;;5.32;4.90;;;29.50;81.00;;;;;;1714843;28;20230;-67
2023/03/16 10:21:42;;;;;;;6.28;5.68;;;29.70;80.10;;;;;;1714884;28;20293;-67
2023/03/16 10:22:34;;;;;;;5.93;5.30;;;29.80;80.10;;;;;;1718196;28;20547;-67
2023/03/16 10:23:27;;;;;;;6.15;5.10;;;29.90;80.20;;;;;;1714716;28;20206;-67
2023/03/16 10:24:35;;;;;;;5.88;5.00;;;29.90;79.50;;;;;;1714212;28;20210;-68
2023/03/16 10:25:32;;;;;;;4.80;4.40;;;30.00;78.90;;;;;;1714161;28;20284;-68
2023/03/16 10:26:31;;;;;;;6.55;5.18;;;30.10;79.20;;;;;;1714388;28;20228;-68
2023/03/16 10:27:27;;;;;;;6.70;5.85;;;30.40;79.00;;;;;;1714745;28;20209;-67
2023/03/16 10:28:21;;;;;;;5.80;5.30;;;30.80;78.50;;;;;;1714280;28;20205;-68
2023/03/16 10:29:13;;;;;;;5.63;5.13;;;31.20;77.60;;;;;;1713763;28;20229;-68
2023/03/16 10:30:17;;;;;;;5.45;4.90;;;31.60;77.20;;;;;;1714444;28;20205;-67
2023/03/16 10:31:10;;;;;;;5.15;4.65;;;32.10;76.60;;;;;;1714795;28;20210;-68
2023/03/16 10:32:12;;;;;;;4.72;4.35;;;32.70;75.90;;;;;;1714834;28;20202;-67
2023/03/16 10:33:12;;;;;;;5.38;4.53;;;33.10;74.90;;;;;;1714790;28;20213;-68
2023/03/16 10:34:05;;;;;;;5.55;5.15;;;33.50;74.60;;;;;;1714733;28;20233;-70
2023/03/16 10:35:01;;;;;;;5.60;5.10;;;34.00;73.90;;;;;;1714120;28;20209;-68
2023/03/16 10:36:01;;;;;;;5.60;5.20;;;34.40;72.70;;;;;;1714712;28;20214;-67
2023/03/16 10:36:54;;;;;;;5.20;4.70;;;34.90;72.80;;;;;;1714541;28;20206;-67
2023/03/16 10:37:47;;;;;;;4.82;4.43;;;35.50;72.40;;;;;;1711123;28;20202;-70
2023/03/16 10:38:42;;;;;;;5.45;4.95;;;35.90;71.10;;;;;;1714057;28;20202;-68
2023/03/16 10:39:41;;;;;;;5.20;4.80;;;36.30;70.80;;;;;;1713578;28;20198;-70
2023/03/16 10:40:38;;;;;;;4.80;4.50;;;36.70;69.80;;;;;;1713932;28;20225;-68